createdAt,value
2023-04-29T00:00:17.523Z,718.00
2023-04-29T00:01:17.605Z,718.00
2023-04-29T00:02:17.668Z,717.00
2023-04-29T00:03:18.045Z,716.00
2023-04-29T00:04:18.027Z,713.00
2023-04-29T00:05:17.951Z,715.00
2023-04-29T00:06:18.149Z,714.00
2023-04-29T00:07:17.906Z,714.00
2023-04-29T00:08:17.974Z,713.00
2023-04-29T00:09:18.025Z,715.00
2023-04-29T00:10:18.106Z,716.00
2023-04-29T00:11:18.161Z,717.00
2023-04-29T00:12:18.216Z,714.00
2023-04-29T00:13:18.261Z,710.00
2023-04-29T00:14:18.325Z,710.00
2023-04-29T00:15:18.390Z,710.00
2023-04-29T00:16:18.491Z,709.00
2023-04-29T00:17:18.517Z,711.00
2023-04-29T00:18:18.544Z,711.00
2023-04-29T00:19:18.617Z,711.00
2023-04-29T00:20:18.630Z,713.00
2023-04-29T00:21:18.679Z,713.00
2023-04-29T00:22:18.740Z,712.00
2023-04-29T00:23:18.807Z,710.00
2023-04-29T00:24:18.845Z,709.00
2023-04-29T00:25:18.931Z,712.00
2023-04-29T00:26:18.952Z,713.00
2023-04-29T00:27:19.009Z,713.00
2023-04-29T00:28:19.097Z,713.00
2023-04-29T00:29:19.145Z,713.00
2023-04-29T00:30:19.240Z,711.00
2023-04-29T00:31:19.334Z,711.00
2023-04-29T00:32:19.307Z,710.00
2023-04-29T00:33:19.357Z,712.00
2023-04-29T00:34:19.393Z,711.00
2023-04-29T00:35:19.480Z,710.00
2023-04-29T00:36:19.443Z,710.00
2023-04-29T00:37:19.475Z,709.00
2023-04-29T00:38:19.490Z,709.00
2023-04-29T00:39:19.516Z,709.00
2023-04-29T00:40:19.580Z,710.00
2023-04-29T00:41:19.584Z,709.00
2023-04-29T00:42:19.657Z,707.00
2023-04-29T00:43:19.679Z,702.00
2023-04-29T00:44:19.695Z,703.00
2023-04-29T00:45:19.765Z,705.00
2023-04-29T00:46:19.863Z,707.00
2023-04-29T00:47:19.859Z,709.00
2023-04-29T00:48:19.894Z,711.00
2023-04-29T00:49:19.966Z,713.00
2023-04-29T00:50:20.025Z,711.00
2023-04-29T00:51:20.101Z,712.00
2023-04-29T00:52:20.116Z,712.00
2023-04-29T00:53:20.203Z,710.00
2023-04-29T00:54:20.266Z,708.00
2023-04-29T00:55:20.285Z,707.00
2023-04-29T00:56:20.325Z,704.00
2023-04-29T00:57:20.362Z,702.00
2023-04-29T00:58:20.407Z,703.00
2023-04-29T00:59:20.479Z,704.00
2023-04-29T01:00:20.486Z,701.00
2023-04-29T01:01:20.587Z,700.00
2023-04-29T01:02:20.611Z,699.00
2023-04-29T01:03:20.692Z,700.00
2023-04-29T01:04:20.658Z,701.00
2023-04-29T01:05:20.677Z,703.00
2023-04-29T01:06:20.664Z,703.00
2023-04-29T01:07:20.683Z,702.00
2023-04-29T01:08:20.741Z,701.00
2023-04-29T01:09:20.762Z,700.00
2023-04-29T01:10:20.807Z,699.00
2023-04-29T01:11:20.860Z,698.00
2023-04-29T01:12:20.931Z,700.00
2023-04-29T01:13:20.978Z,700.00
2023-04-29T01:14:21.039Z,701.00
2023-04-29T01:15:21.056Z,700.00
2023-04-29T01:16:21.836Z,698.00
2023-04-29T01:17:21.081Z,699.00
2023-04-29T01:18:21.126Z,699.00
2023-04-29T01:19:21.181Z,697.00
2023-04-29T01:20:21.192Z,697.00
2023-04-29T01:21:21.255Z,698.00
2023-04-29T01:22:21.238Z,700.00
2023-04-29T01:23:21.270Z,702.00
2023-04-29T01:24:21.332Z,703.00
2023-04-29T01:25:21.389Z,708.00
2023-04-29T01:26:21.375Z,709.00
2023-04-29T01:27:21.407Z,709.00
2023-04-29T01:28:21.415Z,707.00
2023-04-29T01:29:21.459Z,708.00
2023-04-29T01:30:21.482Z,706.00
2023-04-29T01:31:21.535Z,703.00
2023-04-29T01:32:21.575Z,701.00
2023-04-29T01:33:21.639Z,701.00
2023-04-29T01:34:21.704Z,702.00
2023-04-29T01:35:21.711Z,701.00
2023-04-29T01:36:21.763Z,702.00
2023-04-29T01:37:21.808Z,703.00
2023-04-29T01:38:21.813Z,703.00
2023-04-29T01:39:21.872Z,701.00
2023-04-29T01:40:21.898Z,697.00
2023-04-29T01:41:21.885Z,693.00
2023-04-29T01:42:21.893Z,693.00
2023-04-29T01:43:21.943Z,695.00
2023-04-29T01:44:21.963Z,695.00
2023-04-29T01:45:21.939Z,696.00
2023-04-29T01:46:22.067Z,694.00
2023-04-29T01:47:21.984Z,693.00
2023-04-29T01:48:21.991Z,690.00
2023-04-29T01:49:21.988Z,691.00
2023-04-29T01:50:21.989Z,692.00
2023-04-29T01:51:22.017Z,692.00
2023-04-29T01:52:22.031Z,690.00
2023-04-29T01:53:22.037Z,691.00
2023-04-29T01:54:22.104Z,692.00
2023-04-29T01:55:22.113Z,693.00
2023-04-29T01:56:22.159Z,694.00
2023-04-29T01:57:22.199Z,693.00
2023-04-29T01:58:22.232Z,691.00
2023-04-29T01:59:22.241Z,690.00
2023-04-29T02:00:22.283Z,692.00
2023-04-29T02:01:22.397Z,695.00
2023-04-29T02:02:22.397Z,698.00
2023-04-29T02:03:22.443Z,697.00
2023-04-29T02:04:22.386Z,695.00
2023-04-29T02:05:22.395Z,694.00
2023-04-29T02:06:22.425Z,694.00
2023-04-29T02:07:22.472Z,695.00
2023-04-29T02:08:22.481Z,697.00
2023-04-29T02:09:22.459Z,697.00
2023-04-29T02:10:22.496Z,696.00
2023-04-29T02:11:22.500Z,695.00
2023-04-29T02:12:22.527Z,692.00
2023-04-29T02:13:22.512Z,688.00
2023-04-29T02:14:22.546Z,688.00
2023-04-29T02:15:22.549Z,689.00
2023-04-29T02:16:22.582Z,688.00
2023-04-29T02:17:22.591Z,687.00
2023-04-29T02:18:22.594Z,689.00
2023-04-29T02:19:22.598Z,688.00
2023-04-29T02:20:22.599Z,688.00
2023-04-29T02:21:22.608Z,688.00
2023-04-29T02:22:22.619Z,688.00
2023-04-29T02:23:22.650Z,688.00
2023-04-29T02:24:22.664Z,688.00
2023-04-29T02:25:22.716Z,690.00
2023-04-29T02:26:22.708Z,690.00
2023-04-29T02:27:22.724Z,692.00
2023-04-29T02:28:22.737Z,690.00
2023-04-29T02:29:22.763Z,688.00
2023-04-29T02:30:22.765Z,688.00
2023-04-29T02:31:22.804Z,692.00
2023-04-29T02:32:22.810Z,693.00
2023-04-29T02:33:22.794Z,693.00
2023-04-29T02:34:22.828Z,692.00
2023-04-29T02:35:22.831Z,694.00
2023-04-29T02:36:22.866Z,693.00
2023-04-29T02:37:22.912Z,691.00
2023-04-29T02:38:22.933Z,689.00
2023-04-29T02:39:22.970Z,687.00
2023-04-29T02:40:23.008Z,685.00
2023-04-29T02:41:23.045Z,685.00
2023-04-29T02:42:23.089Z,684.00
2023-04-29T02:43:23.072Z,683.00
2023-04-29T02:44:23.093Z,683.00
2023-04-29T02:45:23.081Z,682.00
2023-04-29T02:46:23.237Z,684.00
2023-04-29T02:47:23.087Z,683.00
2023-04-29T02:48:23.082Z,684.00
2023-04-29T02:49:23.125Z,684.00
2023-04-29T02:50:23.164Z,682.00
2023-04-29T02:51:23.172Z,681.00
2023-04-29T02:52:23.202Z,682.00
2023-04-29T02:53:23.222Z,684.00
2023-04-29T02:54:23.262Z,684.00
2023-04-29T02:55:23.296Z,682.00
2023-04-29T02:56:23.396Z,682.00
2023-04-29T02:57:23.329Z,682.00
2023-04-29T02:58:23.332Z,684.00
2023-04-29T02:59:23.378Z,683.00
2023-04-29T03:00:23.444Z,682.00
2023-04-29T03:01:23.522Z,681.00
2023-04-29T03:02:23.522Z,681.00
2023-04-29T03:03:23.648Z,681.00
2023-04-29T03:04:23.587Z,680.00
2023-04-29T03:05:23.517Z,679.00
2023-04-29T03:06:23.523Z,680.00
2023-04-29T03:07:23.571Z,681.00
2023-04-29T03:08:23.598Z,680.00
2023-04-29T03:09:23.656Z,680.00
2023-04-29T03:10:23.695Z,681.00
2023-04-29T03:11:23.732Z,680.00
2023-04-29T03:12:23.744Z,679.00
2023-04-29T03:13:23.758Z,680.00
2023-04-29T03:14:23.776Z,678.00
2023-04-29T03:15:23.778Z,678.00
2023-04-29T03:16:23.801Z,679.00
2023-04-29T03:17:23.784Z,681.00
2023-04-29T03:18:23.807Z,683.00
2023-04-29T03:19:23.838Z,684.00
2023-04-29T03:20:23.872Z,684.00
2023-04-29T03:21:23.909Z,681.00
2023-04-29T03:22:23.960Z,679.00
2023-04-29T03:23:23.968Z,673.00
2023-04-29T03:24:23.972Z,672.00
2023-04-29T03:25:24.000Z,674.00
2023-04-29T03:26:24.116Z,675.00
2023-04-29T03:27:24.057Z,674.00
2023-04-29T03:28:24.032Z,675.00
2023-04-29T03:29:24.041Z,675.00
2023-04-29T03:30:24.091Z,674.00
2023-04-29T03:31:24.186Z,674.00
2023-04-29T03:32:24.133Z,674.00
2023-04-29T03:33:24.089Z,672.00
2023-04-29T03:34:24.073Z,673.00
2023-04-29T03:35:24.114Z,671.00
2023-04-29T03:36:24.123Z,672.00
2023-04-29T03:37:24.135Z,674.00
2023-04-29T03:38:24.109Z,673.00
2023-04-29T03:39:24.135Z,671.00
2023-04-29T03:40:24.114Z,674.00
2023-04-29T03:41:24.107Z,674.00
2023-04-29T03:42:24.126Z,675.00
2023-04-29T03:43:24.139Z,678.00
2023-04-29T03:44:24.122Z,677.00
2023-04-29T03:45:24.123Z,677.00
2023-04-29T03:46:24.184Z,675.00
2023-04-29T03:47:24.167Z,675.00
2023-04-29T03:48:24.109Z,675.00
2023-04-29T03:49:24.109Z,672.00
2023-04-29T03:50:24.140Z,671.00
2023-04-29T03:51:24.168Z,672.00
2023-04-29T03:52:24.177Z,674.00
2023-04-29T03:53:24.154Z,672.00
2023-04-29T03:54:24.175Z,672.00
2023-04-29T03:55:24.179Z,670.00
2023-04-29T03:56:24.164Z,672.00
2023-04-29T03:57:24.179Z,671.00
2023-04-29T03:58:24.165Z,673.00
2023-04-29T03:59:24.157Z,672.00
2023-04-29T04:00:24.175Z,671.00
2023-04-29T04:01:24.180Z,669.00
2023-04-29T04:02:24.288Z,669.00
2023-04-29T04:03:24.290Z,669.00
2023-04-29T04:04:24.301Z,667.00
2023-04-29T04:05:24.160Z,668.00
2023-04-29T04:06:24.165Z,667.00
2023-04-29T04:07:24.239Z,665.00
2023-04-29T04:08:24.208Z,664.00
2023-04-29T04:09:24.254Z,661.00
2023-04-29T04:10:24.274Z,660.00
2023-04-29T04:11:24.261Z,661.00
2023-04-29T04:12:24.240Z,663.00
2023-04-29T04:13:24.270Z,663.00
2023-04-29T04:14:24.250Z,664.00
2023-04-29T04:15:24.209Z,664.00
2023-04-29T04:16:24.310Z,665.00
2023-04-29T04:17:24.250Z,664.00
2023-04-29T04:18:24.261Z,664.00
2023-04-29T04:19:24.237Z,663.00
2023-04-29T04:20:24.227Z,662.00
2023-04-29T04:21:24.229Z,662.00
2023-04-29T04:22:24.237Z,661.00
2023-04-29T04:23:24.287Z,660.00
2023-04-29T04:24:24.260Z,664.00
2023-04-29T04:25:24.270Z,663.00
2023-04-29T04:26:24.268Z,663.00
2023-04-29T04:27:24.272Z,663.00
2023-04-29T04:28:24.266Z,668.00
2023-04-29T04:29:24.279Z,666.00
2023-04-29T04:30:24.234Z,664.00
2023-04-29T04:31:24.263Z,662.00
2023-04-29T04:32:24.340Z,660.00
2023-04-29T04:33:24.272Z,659.00
2023-04-29T04:34:24.312Z,657.00
2023-04-29T04:35:24.316Z,658.00
2023-04-29T04:36:24.321Z,657.00
2023-04-29T04:37:24.300Z,658.00
2023-04-29T04:38:24.294Z,660.00
2023-04-29T04:39:24.300Z,663.00
2023-04-29T04:40:24.306Z,661.00
2023-04-29T04:41:24.291Z,661.00
2023-04-29T04:42:24.316Z,658.00
2023-04-29T04:43:24.272Z,656.00
2023-04-29T04:44:24.255Z,654.00
2023-04-29T04:45:24.351Z,655.00
2023-04-29T04:46:24.283Z,655.00
2023-04-29T04:47:24.347Z,657.00
2023-04-29T04:48:24.276Z,653.00
2023-04-29T04:49:24.262Z,654.00
2023-04-29T04:50:24.262Z,655.00
2023-04-29T04:51:24.291Z,656.00
2023-04-29T04:52:24.242Z,656.00
2023-04-29T04:53:24.269Z,657.00
2023-04-29T04:54:24.276Z,659.00
2023-04-29T04:55:24.284Z,657.00
2023-04-29T04:56:24.244Z,655.00
2023-04-29T04:57:24.293Z,658.00
2023-04-29T04:58:24.293Z,655.00
2023-04-29T04:59:24.236Z,656.00
2023-04-29T05:00:24.248Z,656.00
2023-04-29T05:01:24.318Z,656.00
2023-04-29T05:02:24.357Z,655.00
2023-04-29T05:03:24.432Z,656.00
2023-04-29T05:04:24.333Z,656.00
2023-04-29T05:05:24.302Z,655.00
2023-04-29T05:06:24.268Z,651.00
2023-04-29T05:07:24.226Z,652.00
2023-04-29T05:08:24.271Z,651.00
2023-04-29T05:09:24.278Z,651.00
2023-04-29T05:10:24.250Z,650.00
2023-04-29T05:11:24.307Z,650.00
2023-04-29T05:12:24.315Z,648.00
2023-04-29T05:13:24.277Z,650.00
2023-04-29T05:14:24.273Z,650.00
2023-04-29T05:15:24.245Z,652.00
2023-04-29T05:16:24.293Z,653.00
2023-04-29T05:17:24.270Z,652.00
2023-04-29T05:18:24.263Z,653.00
2023-04-29T05:19:24.248Z,649.00
2023-04-29T05:20:24.275Z,648.00
2023-04-29T05:21:24.239Z,649.00
2023-04-29T05:22:24.243Z,650.00
2023-04-29T05:23:24.263Z,648.00
2023-04-29T05:24:24.233Z,648.00
2023-04-29T05:25:24.245Z,650.00
2023-04-29T05:26:24.257Z,651.00
2023-04-29T05:27:24.251Z,647.00
2023-04-29T05:28:25.196Z,647.00
2023-04-29T05:29:24.248Z,647.00
2023-04-29T05:30:24.234Z,650.00
2023-04-29T05:31:24.345Z,650.00
2023-04-29T05:32:24.283Z,651.00
2023-04-29T05:33:24.249Z,652.00
2023-04-29T05:34:24.254Z,650.00
2023-04-29T05:35:24.222Z,649.00
2023-04-29T05:36:24.221Z,646.00
2023-04-29T05:37:24.232Z,647.00
2023-04-29T05:38:24.263Z,647.00
2023-04-29T05:39:24.250Z,645.00
2023-04-29T05:40:24.244Z,646.00
2023-04-29T05:41:24.253Z,645.00
2023-04-29T05:42:24.260Z,646.00
2023-04-29T05:43:24.245Z,647.00
2023-04-29T05:44:24.264Z,646.00
2023-04-29T05:45:24.219Z,647.00
2023-04-29T05:46:24.265Z,647.00
2023-04-29T05:47:24.271Z,643.00
2023-04-29T05:48:24.208Z,646.00
2023-04-29T05:49:24.221Z,647.00
2023-04-29T05:50:24.253Z,648.00
2023-04-29T05:51:24.244Z,646.00
2023-04-29T05:52:24.234Z,644.00
2023-04-29T05:53:24.212Z,646.00
2023-04-29T05:54:24.217Z,648.00
2023-04-29T05:55:24.204Z,649.00
2023-04-29T05:56:24.229Z,649.00
2023-04-29T05:57:24.222Z,651.00
2023-04-29T05:58:24.200Z,652.00
2023-04-29T05:59:24.214Z,648.00
2023-04-29T06:00:24.180Z,650.00
2023-04-29T06:01:24.179Z,651.00
2023-04-29T06:02:24.341Z,650.00
2023-04-29T06:03:24.339Z,649.00
2023-04-29T06:04:24.284Z,647.00
2023-04-29T06:05:24.496Z,646.00
2023-04-29T06:06:24.451Z,645.00
2023-04-29T06:07:24.230Z,645.00
2023-04-29T06:08:24.186Z,644.00
2023-04-29T06:09:27.978Z,644.00
2023-04-29T06:10:24.201Z,641.00
2023-04-29T06:11:24.193Z,642.00
2023-04-29T06:12:24.202Z,643.00
2023-04-29T06:13:24.172Z,644.00
2023-04-29T06:14:24.176Z,647.00
2023-04-29T06:15:24.204Z,646.00
2023-04-29T06:16:24.192Z,648.00
2023-04-29T06:17:24.146Z,645.00
2023-04-29T06:18:24.167Z,646.00
2023-04-29T06:19:24.155Z,649.00
2023-04-29T06:20:24.147Z,647.00
2023-04-29T06:21:24.164Z,647.00
2023-04-29T06:22:24.152Z,644.00
2023-04-29T06:23:24.114Z,644.00
2023-04-29T06:24:24.102Z,643.00
2023-04-29T06:25:24.088Z,640.00
2023-04-29T06:26:24.112Z,638.00
2023-04-29T06:27:24.091Z,639.00
2023-04-29T06:28:24.095Z,638.00
2023-04-29T06:29:24.065Z,640.00
2023-04-29T06:30:24.092Z,641.00
2023-04-29T06:31:24.118Z,640.00
2023-04-29T06:32:24.063Z,642.00
2023-04-29T06:33:24.045Z,639.00
2023-04-29T06:34:24.090Z,635.00
2023-04-29T06:35:24.047Z,635.00
2023-04-29T06:36:24.047Z,637.00
2023-04-29T06:37:24.019Z,637.00
2023-04-29T06:38:24.034Z,637.00
2023-04-29T06:39:24.013Z,635.00
2023-04-29T06:40:23.973Z,636.00
2023-04-29T06:41:23.974Z,638.00
2023-04-29T06:42:23.986Z,639.00
2023-04-29T06:43:24.026Z,640.00
2023-04-29T06:44:23.972Z,638.00
2023-04-29T06:45:23.960Z,638.00
2023-04-29T06:46:23.988Z,639.00
2023-04-29T06:47:23.986Z,639.00
2023-04-29T06:48:23.959Z,642.00
2023-04-29T06:49:23.955Z,641.00
2023-04-29T06:50:23.930Z,642.00
2023-04-29T06:51:23.926Z,644.00
2023-04-29T06:52:23.953Z,644.00
2023-04-29T06:53:23.896Z,642.00
2023-04-29T06:54:23.907Z,641.00
2023-04-29T06:55:23.890Z,642.00
2023-04-29T06:56:24.017Z,640.00
2023-04-29T06:57:23.933Z,637.00
2023-04-29T06:58:23.909Z,637.00
2023-04-29T06:59:23.895Z,635.00
2023-04-29T07:00:23.878Z,636.00
2023-04-29T07:01:23.914Z,635.00
2023-04-29T07:02:23.914Z,636.00
2023-04-29T07:03:23.999Z,638.00
2023-04-29T07:04:23.898Z,638.00
2023-04-29T07:05:23.832Z,637.00
2023-04-29T07:06:23.835Z,642.00
2023-04-29T07:07:23.827Z,640.00
2023-04-29T07:08:23.844Z,635.00
2023-04-29T07:09:23.848Z,633.00
2023-04-29T07:10:23.836Z,633.00
2023-04-29T07:11:23.830Z,634.00
2023-04-29T07:12:23.807Z,635.00
2023-04-29T07:13:23.811Z,636.00
2023-04-29T07:14:23.847Z,634.00
2023-04-29T07:15:23.867Z,637.00
2023-04-29T07:16:23.934Z,637.00
2023-04-29T07:17:23.928Z,633.00
2023-04-29T07:18:23.944Z,633.00
2023-04-29T07:19:24.018Z,631.00
2023-04-29T07:20:24.031Z,631.00
2023-04-29T07:21:24.094Z,632.00
2023-04-29T07:22:24.166Z,630.00
2023-04-29T07:23:24.182Z,628.00
2023-04-29T07:24:24.234Z,628.00
2023-04-29T07:25:24.288Z,628.00
2023-04-29T07:26:24.334Z,627.00
2023-04-29T07:27:24.345Z,627.00
2023-04-29T07:28:24.413Z,626.00
2023-04-29T07:29:24.407Z,628.00
2023-04-29T07:30:24.457Z,630.00
2023-04-29T07:31:24.502Z,630.00
2023-04-29T07:32:24.608Z,631.00
2023-04-29T07:33:24.618Z,630.00
2023-04-29T07:34:24.644Z,639.00
2023-04-29T07:35:24.689Z,639.00
2023-04-29T07:36:24.737Z,633.00
2023-04-29T07:37:24.749Z,631.00
2023-04-29T07:38:24.788Z,628.00
2023-04-29T07:39:24.804Z,631.00
2023-04-29T07:40:24.849Z,633.00
2023-04-29T07:41:24.918Z,629.00
2023-04-29T07:42:25.004Z,629.00
2023-04-29T07:43:25.034Z,629.00
2023-04-29T07:44:25.091Z,628.00
2023-04-29T07:45:25.125Z,628.00
2023-04-29T07:46:25.306Z,628.00
2023-04-29T07:47:25.214Z,630.00
2023-04-29T07:48:25.218Z,631.00
2023-04-29T07:49:25.256Z,630.00
2023-04-29T07:50:25.317Z,625.00
2023-04-29T07:51:25.360Z,625.00
2023-04-29T07:52:25.407Z,624.00
2023-04-29T07:53:25.436Z,624.00
2023-04-29T07:54:25.483Z,624.00
2023-04-29T07:55:25.546Z,625.00
2023-04-29T07:56:25.640Z,622.00
2023-04-29T07:57:25.672Z,621.00
2023-04-29T07:58:25.720Z,621.00
2023-04-29T07:59:25.729Z,621.00
2023-04-29T08:00:25.805Z,622.00
2023-04-29T08:01:25.875Z,618.00
2023-04-29T08:02:25.976Z,618.00
2023-04-29T08:03:26.118Z,619.00
2023-04-29T08:04:26.164Z,619.00
2023-04-29T08:05:26.458Z,620.00
2023-04-29T08:06:26.129Z,618.00
2023-04-29T08:07:26.199Z,619.00
2023-04-29T08:08:26.225Z,621.00
2023-04-29T08:09:26.299Z,622.00
2023-04-29T08:10:26.380Z,621.00
2023-04-29T08:11:26.441Z,619.00
2023-04-29T08:12:26.475Z,622.00
2023-04-29T08:13:26.536Z,622.00
2023-04-29T08:14:26.573Z,624.00
2023-04-29T08:15:26.659Z,622.00
2023-04-29T08:16:26.726Z,623.00
2023-04-29T08:17:26.815Z,622.00
2023-04-29T08:18:26.810Z,622.00
2023-04-29T08:19:26.888Z,623.00
2023-04-29T08:20:26.976Z,623.00
2023-04-29T08:21:27.002Z,623.00
2023-04-29T08:22:27.067Z,624.00
2023-04-29T08:23:27.139Z,624.00
2023-04-29T08:24:27.196Z,623.00
2023-04-29T08:25:27.303Z,622.00
2023-04-29T08:26:27.312Z,623.00
2023-04-29T08:27:27.393Z,620.00
2023-04-29T08:28:27.967Z,620.00
2023-04-29T08:29:27.512Z,619.00
2023-04-29T08:30:27.564Z,621.00
2023-04-29T08:31:27.715Z,621.00
2023-04-29T08:32:27.711Z,621.00
2023-04-29T08:33:27.746Z,621.00
2023-04-29T08:34:27.795Z,625.00
2023-04-29T08:35:27.840Z,627.00
2023-04-29T08:36:27.899Z,624.00
2023-04-29T08:37:27.944Z,623.00
2023-04-29T08:38:28.033Z,624.00
2023-04-29T08:39:28.123Z,620.00
2023-04-29T08:40:28.165Z,617.00
2023-04-29T08:41:28.225Z,615.00
2023-04-29T08:42:28.279Z,616.00
2023-04-29T08:43:28.331Z,615.00
2023-04-29T08:44:28.393Z,615.00
2023-04-29T08:45:28.478Z,615.00
2023-04-29T08:46:28.539Z,617.00
2023-04-29T08:47:28.644Z,617.00
2023-04-29T08:48:28.695Z,617.00
2023-04-29T08:49:28.707Z,617.00
2023-04-29T08:50:28.740Z,613.00
2023-04-29T08:51:28.800Z,612.00
2023-04-29T08:52:28.899Z,614.00
2023-04-29T08:53:28.911Z,616.00
2023-04-29T08:54:28.976Z,617.00
2023-04-29T08:55:29.042Z,617.00
2023-04-29T08:56:29.133Z,617.00
2023-04-29T08:57:29.156Z,616.00
2023-04-29T08:58:29.231Z,613.00
2023-04-29T08:59:29.299Z,614.00
2023-04-29T09:00:29.341Z,611.00
2023-04-29T09:01:29.483Z,612.00
2023-04-29T09:02:29.548Z,612.00
2023-04-29T09:03:29.624Z,611.00
2023-04-29T09:04:29.606Z,611.00
2023-04-29T09:05:29.697Z,612.00
2023-04-29T09:06:29.712Z,612.00
2023-04-29T09:07:29.756Z,610.00
2023-04-29T09:08:29.788Z,609.00
2023-04-29T09:09:29.827Z,610.00
2023-04-29T09:10:29.903Z,610.00
2023-04-29T09:11:29.970Z,609.00
2023-04-29T09:12:29.971Z,607.00
2023-04-29T09:13:30.005Z,605.00
2023-04-29T09:14:30.065Z,604.00
2023-04-29T09:15:30.147Z,607.00
2023-04-29T09:16:30.253Z,608.00
2023-04-29T09:17:30.256Z,610.00
2023-04-29T09:18:30.283Z,611.00
2023-04-29T09:19:30.305Z,609.00
2023-04-29T09:20:30.377Z,609.00
2023-04-29T09:21:30.402Z,608.00
2023-04-29T09:22:30.487Z,609.00
2023-04-29T09:23:30.498Z,609.00
2023-04-29T09:24:30.560Z,610.00
2023-04-29T09:25:30.595Z,612.00
2023-04-29T09:26:30.632Z,614.00
2023-04-29T09:27:30.691Z,613.00
2023-04-29T09:28:30.718Z,612.00
2023-04-29T09:29:30.777Z,611.00
2023-04-29T09:30:30.836Z,612.00
2023-04-29T09:31:30.922Z,611.00
2023-04-29T09:32:30.953Z,609.00
2023-04-29T09:33:30.940Z,606.00
2023-04-29T09:34:31.022Z,605.00
2023-04-29T09:35:31.032Z,604.00
2023-04-29T09:36:31.108Z,603.00
2023-04-29T09:37:31.132Z,605.00
2023-04-29T09:38:31.148Z,606.00
2023-04-29T09:39:31.307Z,607.00
2023-04-29T09:40:31.247Z,605.00
2023-04-29T09:41:31.277Z,605.00
2023-04-29T09:42:31.349Z,603.00
2023-04-29T09:43:31.381Z,602.00
2023-04-29T09:44:33.952Z,601.00
2023-04-29T09:45:31.404Z,600.00
2023-04-29T09:46:31.530Z,598.00
2023-04-29T09:47:31.423Z,597.00
2023-04-29T09:48:31.418Z,596.00
2023-04-29T09:49:31.395Z,596.00
2023-04-29T09:50:31.381Z,597.00
2023-04-29T09:51:31.394Z,597.00
2023-04-29T09:52:31.379Z,596.00
2023-04-29T09:53:31.411Z,597.00
2023-04-29T09:54:31.399Z,599.00
2023-04-29T09:55:31.372Z,604.00
2023-04-29T09:56:31.353Z,605.00
2023-04-29T09:57:31.304Z,606.00
2023-04-29T09:58:31.345Z,607.00
2023-04-29T09:59:31.343Z,606.00
2023-04-29T10:00:31.332Z,608.00
2023-04-29T10:01:31.335Z,609.00
2023-04-29T10:02:31.340Z,607.00
2023-04-29T10:03:31.364Z,609.00
2023-04-29T10:04:31.357Z,605.00
2023-04-29T10:05:31.300Z,605.00
2023-04-29T10:06:31.307Z,606.00
2023-04-29T10:07:31.268Z,607.00
2023-04-29T10:08:31.284Z,606.00
2023-04-29T10:09:31.273Z,607.00
2023-04-29T10:10:31.249Z,607.00
2023-04-29T10:11:31.293Z,606.00
2023-04-29T10:12:31.258Z,603.00
2023-04-29T10:13:31.223Z,601.00
2023-04-29T10:14:31.214Z,604.00
2023-04-29T10:15:31.247Z,605.00
2023-04-29T10:16:31.366Z,606.00
2023-04-29T10:17:31.229Z,605.00
2023-04-29T10:18:31.196Z,604.00
2023-04-29T10:19:31.229Z,603.00
2023-04-29T10:20:31.225Z,600.00
2023-04-29T10:21:31.224Z,599.00
2023-04-29T10:22:31.184Z,601.00
2023-04-29T10:23:31.211Z,600.00
2023-04-29T10:24:31.149Z,598.00
2023-04-29T10:25:31.167Z,599.00
2023-04-29T10:26:31.186Z,599.00
2023-04-29T10:27:31.146Z,599.00
2023-04-29T10:28:31.161Z,601.00
2023-04-29T10:29:31.135Z,603.00
2023-04-29T10:30:31.108Z,603.00
2023-04-29T10:31:31.171Z,604.00
2023-04-29T10:32:39.949Z,603.00
2023-04-29T10:33:32.180Z,603.00
2023-04-29T10:34:31.094Z,604.00
2023-04-29T10:35:31.079Z,604.00
2023-04-29T10:36:31.075Z,603.00
2023-04-29T10:37:31.070Z,602.00
2023-04-29T10:38:31.068Z,603.00
2023-04-29T10:39:31.053Z,601.00
2023-04-29T10:40:31.055Z,603.00
2023-04-29T10:41:31.068Z,603.00
2023-04-29T10:42:31.041Z,603.00
2023-04-29T10:43:31.125Z,602.00
2023-04-29T10:44:31.023Z,603.00
2023-04-29T10:45:31.031Z,599.00
2023-04-29T10:46:31.086Z,602.00
2023-04-29T10:47:31.024Z,602.00
2023-04-29T10:48:31.015Z,603.00
2023-04-29T10:49:31.010Z,602.00
2023-04-29T10:50:31.030Z,600.00
2023-04-29T10:51:31.066Z,598.00
2023-04-29T10:52:31.102Z,598.00
2023-04-29T10:53:31.097Z,598.00
2023-04-29T10:54:31.124Z,597.00
2023-04-29T10:55:31.135Z,595.00
2023-04-29T10:56:31.177Z,594.00
2023-04-29T10:57:31.207Z,592.00
2023-04-29T10:58:31.223Z,592.00
2023-04-29T10:59:31.225Z,592.00
2023-04-29T11:00:31.278Z,594.00
2023-04-29T11:01:31.352Z,595.00
2023-04-29T11:02:31.347Z,594.00
2023-04-29T11:03:31.453Z,595.00
2023-04-29T11:04:31.395Z,591.00
2023-04-29T11:05:31.390Z,591.00
2023-04-29T11:06:31.421Z,591.00
2023-04-29T11:07:31.441Z,594.00
2023-04-29T11:08:31.471Z,594.00
2023-04-29T11:09:31.499Z,593.00
2023-04-29T11:10:31.481Z,592.00
2023-04-29T11:11:31.538Z,592.00
2023-04-29T11:12:31.560Z,592.00
2023-04-29T11:13:31.597Z,593.00
2023-04-29T11:14:31.582Z,594.00
2023-04-29T11:15:31.593Z,594.00
2023-04-29T11:16:31.638Z,595.00
2023-04-29T11:17:31.644Z,593.00
2023-04-29T11:18:31.687Z,596.00
2023-04-29T11:19:31.699Z,598.00
2023-04-29T11:20:31.695Z,594.00
2023-04-29T11:21:31.716Z,597.00
2023-04-29T11:22:31.726Z,597.00
2023-04-29T11:23:31.728Z,595.00
2023-04-29T11:24:31.756Z,592.00
2023-04-29T11:25:31.776Z,592.00
2023-04-29T11:26:31.780Z,591.00
2023-04-29T11:27:32.565Z,590.00
2023-04-29T11:28:31.793Z,587.00
2023-04-29T11:29:31.788Z,587.00
2023-04-29T11:30:31.833Z,587.00
2023-04-29T11:31:31.910Z,587.00
2023-04-29T11:32:31.896Z,587.00
2023-04-29T11:33:31.957Z,586.00
2023-04-29T11:34:31.896Z,584.00
2023-04-29T11:35:31.932Z,586.00
2023-04-29T11:36:31.925Z,587.00
2023-04-29T11:37:31.956Z,587.00
2023-04-29T11:38:31.966Z,586.00
2023-04-29T11:39:31.999Z,587.00
2023-04-29T11:40:31.987Z,586.00
2023-04-29T11:41:32.049Z,585.00
2023-04-29T11:42:32.013Z,587.00
2023-04-29T11:43:32.044Z,587.00
2023-04-29T11:44:32.056Z,587.00
2023-04-29T11:45:32.050Z,589.00
2023-04-29T11:46:32.211Z,590.00
2023-04-29T11:47:32.138Z,590.00
2023-04-29T11:48:32.123Z,591.00
2023-04-29T11:49:32.154Z,588.00
2023-04-29T11:50:32.160Z,591.00
2023-04-29T11:51:32.201Z,593.00
2023-04-29T11:52:32.184Z,590.00
2023-04-29T11:53:32.254Z,589.00
2023-04-29T11:54:32.261Z,589.00
2023-04-29T11:55:32.261Z,588.00
2023-04-29T11:56:32.288Z,588.00
2023-04-29T11:57:32.323Z,589.00
2023-04-29T11:58:32.332Z,587.00
2023-04-29T11:59:32.351Z,584.00
2023-04-29T12:00:32.363Z,581.00
2023-04-29T12:01:32.365Z,585.00
2023-04-29T12:02:32.547Z,586.00
2023-04-29T12:03:32.513Z,586.00
2023-04-29T12:04:32.555Z,588.00
2023-04-29T12:05:32.477Z,588.00
2023-04-29T12:06:32.479Z,588.00
2023-04-29T12:07:32.482Z,589.00
2023-04-29T12:08:32.490Z,589.00
2023-04-29T12:09:32.472Z,587.00
2023-04-29T12:10:32.507Z,587.00
2023-04-29T12:11:32.536Z,584.00
2023-04-29T12:12:32.525Z,583.00
2023-04-29T12:13:32.564Z,583.00
2023-04-29T12:14:32.565Z,583.00
2023-04-29T12:15:32.571Z,585.00
2023-04-29T12:16:32.649Z,585.00
2023-04-29T12:17:32.628Z,587.00
2023-04-29T12:18:32.636Z,587.00
2023-04-29T12:19:32.623Z,587.00
2023-04-29T12:20:32.698Z,585.00
2023-04-29T12:21:32.655Z,583.00
2023-04-29T12:22:32.673Z,584.00
2023-04-29T12:23:32.713Z,584.00
2023-04-29T12:24:32.680Z,583.00
2023-04-29T12:25:32.716Z,583.00
2023-04-29T12:26:32.733Z,583.00
2023-04-29T12:27:32.734Z,585.00
2023-04-29T12:28:32.738Z,584.00